TimeCST,TemperatureF,Dew PointF,Humidity,Sea Level PressureIn,VisibilityMPH,Wind Direction,Wind SpeedMPH,Gust SpeedMPH,PrecipitationIn,Events,Conditions,WindDirDegrees,DateUTC
12:08 AM,55.4,50.0,82,29.80,10.0,NNE,3.5,-,N/A,,Scattered Clouds,30,2012-12-28 06:08:00
12:24 AM,55.4,48.2,77,29.79,10.0,NE,3.5,-,N/A,,Mostly Cloudy,50,2012-12-28 06:24:00
12:51 AM,54.0,46.9,77,29.79,10.0,NNW,4.6,-,N/A,,Scattered Clouds,340,2012-12-28 06:51:00
1:51 AM,53.1,46.9,80,29.78,10.0,North,4.6,-,N/A,,Partly Cloudy,360,2012-12-28 07:51:00
2:48 AM,55.4,51.8,88,29.78,5.0,North,6.9,-,N/A,,Mostly Cloudy,360,2012-12-28 08:48:00
2:51 AM,55.0,51.1,86,29.78,2.5,North,8.1,-,N/A,Fog,Mostly Cloudy,350,2012-12-28 08:51:00
2:57 AM,55.4,51.8,88,29.77,0.8,North,6.9,-,N/A,,Overcast,10,2012-12-28 08:57:00
3:51 AM,54.0,52.0,93,29.78,0.5,North,8.1,-,N/A,Fog,Fog,360,2012-12-28 09:51:00
4:41 AM,55.4,53.6,94,29.77,1.2,North,4.6,-,N/A,,Overcast,350,2012-12-28 10:41:00
4:51 AM,54.0,52.0,93,29.77,2.5,North,5.8,-,N/A,,Mostly Cloudy,350,2012-12-28 10:51:00
5:40 AM,55.4,51.8,88,29.78,3.0,North,5.8,-,N/A,,Overcast,10,2012-12-28 11:40:00
5:51 AM,55.0,53.1,93,29.79,4.0,North,5.8,-,N/A,,Overcast,360,2012-12-28 11:51:00
6:31 AM,55.4,53.6,94,29.81,5.0,NNW,4.6,-,N/A,,Overcast,340,2012-12-28 12:31:00
6:51 AM,55.9,53.1,90,29.82,4.0,North,6.9,-,N/A,,Overcast,350,2012-12-28 12:51:00
7:51 AM,57.9,53.1,84,29.86,5.0,NNW,11.5,-,N/A,,Haze,340,2012-12-28 13:51:00
8:42 AM,60.8,53.6,77,29.88,9.0,NNW,13.8,-,N/A,,Overcast,330,2012-12-28 14:42:00
8:51 AM,60.1,54.0,80,29.89,8.0,NNW,13.8,-,N/A,,Overcast,330,2012-12-28 14:51:00
9:33 AM,64.4,53.6,68,29.90,10.0,NNW,17.3,24.2,N/A,,Scattered Clouds,330,2012-12-28 15:33:00
9:51 AM,64.0,52.0,65,29.91,10.0,NNW,16.1,-,N/A,,Scattered Clouds,340,2012-12-28 15:51:00
10:51 AM,64.9,51.1,61,29.93,10.0,NNW,15.0,-,N/A,,Partly Cloudy,330,2012-12-28 16:51:00
11:51 AM,64.9,46.9,52,29.92,10.0,NNW,18.4,-,N/A,,Partly Cloudy,330,2012-12-28 17:51:00
12:51 PM,68.0,41.0,37,29.88,10.0,NNW,21.9,-,N/A,,Clear,340,2012-12-28 18:51:00
1:51 PM,71.1,37.0,29,29.87,10.0,North,19.6,26.5,N/A,,Clear,350,2012-12-28 19:51:00
2:51 PM,75.0,35.1,23,29.87,10.0,NNW,23.0,28.8,N/A,,Clear,340,2012-12-28 20:51:00
3:51 PM,75.0,35.1,23,29.88,10.0,North,20.7,-,N/A,,Clear,350,2012-12-28 21:51:00
4:51 PM,73.0,30.0,20,29.90,10.0,NNW,16.1,-,N/A,,Partly Cloudy,340,2012-12-28 22:51:00
5:51 PM,70.0,27.0,20,29.93,10.0,NNW,15.0,-,N/A,,Partly Cloudy,340,2012-12-28 23:51:00
6:38 PM,66.2,39.2,37,29.96,10.0,NE,16.1,21.9,N/A,,Partly Cloudy,50,2012-12-29 00:38:00
6:51 PM,64.4,39.2,40,29.98,10.0,NE,12.7,-,N/A,,Partly Cloudy,50,2012-12-29 00:51:00
7:51 PM,63.0,33.1,33,30.02,10.0,NNE,20.7,27.6,N/A,,Clear,20,2012-12-29 01:51:00
8:51 PM,60.8,30.2,31,30.07,10.0,North,15.0,25.3,N/A,,Clear,10,2012-12-29 02:51:00
9:51 PM,55.9,30.0,37,30.11,10.0,NNE,21.9,-,N/A,,Clear,20,2012-12-29 03:51:00
10:51 PM,53.1,33.1,47,30.15,10.0,North,13.8,-,N/A,,Clear,360,2012-12-29 04:51:00
11:51 PM,50.0,35.1,57,30.18,10.0,NNE,16.1,-,N/A,,Clear,30,2012-12-29 05:51:00